sensor_id;sensor_type;location;lat;lon;timestamp;P1;durP1;ratioP1;P2;durP2;ratioP2
7989;SDS011;4040;42.848;23.034;2023-06-22T00:01:44;9.20;;;7.53;;
7989;SDS011;4040;42.848;23.034;2023-06-22T00:07:33;10.40;;;7.25;;
7989;SDS011;4040;42.848;23.034;2023-06-22T00:13:40;8.02;;;7.13;;
7989;SDS011;4040;42.848;23.034;2023-06-22T00:19:29;8.77;;;7.00;;
7989;SDS011;4040;42.848;23.034;2023-06-22T00:25:17;8.77;;;6.95;;
7989;SDS011;4040;42.848;23.034;2023-06-22T00:31:07;9.38;;;6.95;;
7989;SDS011;4040;42.848;23.034;2023-06-22T00:36:56;10.05;;;6.85;;
7989;SDS011;4040;42.848;23.034;2023-06-22T00:42:46;11.73;;;7.32;;
7989;SDS011;4040;42.848;23.034;2023-06-22T00:48:35;11.05;;;8.32;;
7989;SDS011;4040;42.848;23.034;2023-06-22T00:54:25;8.85;;;7.15;;
7989;SDS011;4040;42.848;23.034;2023-06-22T01:00:14;8.75;;;6.93;;
7989;SDS011;4040;42.848;23.034;2023-06-22T01:10:29;8.85;;;7.55;;
7989;SDS011;4040;42.848;23.034;2023-06-22T01:16:23;10.70;;;7.93;;
7989;SDS011;4040;42.848;23.034;2023-06-22T01:22:15;10.38;;;7.47;;
7989;SDS011;4040;42.848;23.034;2023-06-22T01:28:10;10.95;;;7.97;;
7989;SDS011;4040;42.848;23.034;2023-06-22T01:34:13;10.00;;;8.23;;
7989;SDS011;4040;42.848;23.034;2023-06-22T01:40:05;9.07;;;7.07;;
7989;SDS011;4040;42.848;23.034;2023-06-22T01:46:06;9.02;;;7.05;;
7989;SDS011;4040;42.848;23.034;2023-06-22T01:51:56;10.77;;;7.45;;
7989;SDS011;4040;42.848;23.034;2023-06-22T01:57:45;13.15;;;8.20;;
7989;SDS011;4040;42.848;23.034;2023-06-22T02:03:34;9.77;;;7.78;;
7989;SDS011;4040;42.848;23.034;2023-06-22T02:06:05;10.60;;;8.25;;
7989;SDS011;4040;42.848;23.034;2023-06-22T02:11:59;9.20;;;7.40;;
7989;SDS011;4040;42.848;23.034;2023-06-22T02:17:50;12.18;;;8.25;;
7989;SDS011;4040;42.848;23.034;2023-06-22T02:23:39;10.27;;;8.30;;
7989;SDS011;4040;42.848;23.034;2023-06-22T02:29:29;15.38;;;8.27;;
7989;SDS011;4040;42.848;23.034;2023-06-22T02:35:18;12.60;;;8.55;;
7989;SDS011;4040;42.848;23.034;2023-06-22T02:41:07;11.25;;;8.07;;
7989;SDS011;4040;42.848;23.034;2023-06-22T02:47:01;16.60;;;8.50;;
7989;SDS011;4040;42.848;23.034;2023-06-22T02:52:50;11.45;;;8.60;;
7989;SDS011;4040;42.848;23.034;2023-06-22T02:58:39;11.02;;;8.32;;
7989;SDS011;4040;42.848;23.034;2023-06-22T03:04:30;12.05;;;9.35;;
7989;SDS011;4040;42.848;23.034;2023-06-22T03:10:19;13.95;;;9.82;;
7989;SDS011;4040;42.848;23.034;2023-06-22T03:16:08;15.25;;;9.45;;
7989;SDS011;4040;42.848;23.034;2023-06-22T03:21:59;11.55;;;8.82;;
7989;SDS011;4040;42.848;23.034;2023-06-22T03:27:48;11.35;;;9.25;;
7989;SDS011;4040;42.848;23.034;2023-06-22T03:33:37;11.77;;;9.48;;
7989;SDS011;4040;42.848;23.034;2023-06-22T03:39:28;13.48;;;9.68;;
7989;SDS011;4040;42.848;23.034;2023-06-22T03:45:16;13.07;;;10.40;;
7989;SDS011;4040;42.848;23.034;2023-06-22T03:51:05;17.33;;;10.95;;
7989;SDS011;4040;42.848;23.034;2023-06-22T03:56:56;18.73;;;10.88;;
7989;SDS011;4040;42.848;23.034;2023-06-22T04:02:45;13.32;;;10.50;;
7989;SDS011;4040;42.848;23.034;2023-06-22T04:09:05;15.50;;;10.45;;
7989;SDS011;4040;42.848;23.034;2023-06-22T04:14:55;13.85;;;10.98;;
7989;SDS011;4040;42.848;23.034;2023-06-22T04:20:43;14.15;;;10.98;;
7989;SDS011;4040;42.848;23.034;2023-06-22T04:26:33;12.48;;;10.02;;
7989;SDS011;4040;42.848;23.034;2023-06-22T04:32:25;16.23;;;10.23;;
7989;SDS011;4040;42.848;23.034;2023-06-22T04:38:13;11.55;;;8.27;;
7989;SDS011;4040;42.848;23.034;2023-06-22T04:44:02;11.27;;;8.45;;
7989;SDS011;4040;42.848;23.034;2023-06-22T04:49:53;8.57;;;7.40;;
7989;SDS011;4040;42.848;23.034;2023-06-22T04:55:41;8.70;;;7.35;;
7989;SDS011;4040;42.848;23.034;2023-06-22T05:01:32;9.63;;;7.50;;
7989;SDS011;4040;42.848;23.034;2023-06-22T05:07:23;8.43;;;7.53;;
7989;SDS011;4040;42.848;23.034;2023-06-22T05:13:13;8.57;;;7.63;;
7989;SDS011;4040;42.848;23.034;2023-06-22T05:19:01;9.50;;;7.25;;
7989;SDS011;4040;42.848;23.034;2023-06-22T05:24:52;12.23;;;8.55;;
7989;SDS011;4040;42.848;23.034;2023-06-22T05:30:41;10.05;;;7.18;;
7989;SDS011;4040;42.848;23.034;2023-06-22T05:36:29;9.50;;;7.07;;
7989;SDS011;4040;42.848;23.034;2023-06-22T05:42:20;6.60;;;5.97;;
7989;SDS011;4040;42.848;23.034;2023-06-22T05:48:08;8.18;;;6.40;;
7989;SDS011;4040;42.848;23.034;2023-06-22T05:53:57;7.95;;;6.75;;
7989;SDS011;4040;42.848;23.034;2023-06-22T05:59:47;7.78;;;6.18;;
7989;SDS011;4040;42.848;23.034;2023-06-22T06:05:36;7.45;;;6.28;;
7989;SDS011;4040;42.848;23.034;2023-06-22T06:15:48;11.23;;;6.68;;
7989;SDS011;4040;42.848;23.034;2023-06-22T06:21:37;8.35;;;6.78;;
7989;SDS011;4040;42.848;23.034;2023-06-22T06:27:26;10.20;;;6.47;;
7989;SDS011;4040;42.848;23.034;2023-06-22T06:33:17;8.18;;;6.13;;
7989;SDS011;4040;42.848;23.034;2023-06-22T06:39:07;6.90;;;6.10;;
7989;SDS011;4040;42.848;23.034;2023-06-22T06:44:56;11.15;;;6.32;;
7989;SDS011;4040;42.848;23.034;2023-06-22T06:50:46;10.27;;;6.68;;
7989;SDS011;4040;42.848;23.034;2023-06-22T06:56:35;8.48;;;6.93;;
7989;SDS011;4040;42.848;23.034;2023-06-22T07:02:24;6.40;;;5.70;;
7989;SDS011;4040;42.848;23.034;2023-06-22T07:08:15;6.88;;;6.20;;
7989;SDS011;4040;42.848;23.034;2023-06-22T07:18:26;7.55;;;6.10;;
7989;SDS011;4040;42.848;23.034;2023-06-22T07:24:16;9.40;;;7.05;;
7989;SDS011;4040;42.848;23.034;2023-06-22T07:30:05;8.35;;;6.15;;
7989;SDS011;4040;42.848;23.034;2023-06-22T07:35:54;14.88;;;6.75;;
7989;SDS011;4040;42.848;23.034;2023-06-22T07:41:45;9.50;;;6.15;;
7989;SDS011;4040;42.848;23.034;2023-06-22T07:47:33;11.45;;;6.75;;
7989;SDS011;4040;42.848;23.034;2023-06-22T07:53:23;10.98;;;6.78;;
7989;SDS011;4040;42.848;23.034;2023-06-22T07:59:13;8.48;;;6.47;;
7989;SDS011;4040;42.848;23.034;2023-06-22T08:05:01;7.03;;;6.10;;
7989;SDS011;4040;42.848;23.034;2023-06-22T08:10:50;6.20;;;5.70;;
7989;SDS011;4040;42.848;23.034;2023-06-22T08:21:02;5.97;;;5.43;;
7989;SDS011;4040;42.848;23.034;2023-06-22T08:26:51;6.00;;;5.18;;
7989;SDS011;4040;42.848;23.034;2023-06-22T08:32:40;5.93;;;5.43;;
7989;SDS011;4040;42.848;23.034;2023-06-22T08:38:30;6.15;;;5.55;;
7989;SDS011;4040;42.848;23.034;2023-06-22T08:44:18;6.03;;;5.22;;
7989;SDS011;4040;42.848;23.034;2023-06-22T08:50:08;6.28;;;5.30;;
7989;SDS011;4040;42.848;23.034;2023-06-22T08:55:59;5.75;;;5.15;;
7989;SDS011;4040;42.848;23.034;2023-06-22T09:01:47;6.63;;;5.82;;
7989;SDS011;4040;42.848;23.034;2023-06-22T09:07:36;6.10;;;5.60;;
7989;SDS011;4040;42.848;23.034;2023-06-22T09:13:27;6.20;;;5.60;;
7989;SDS011;4040;42.848;23.034;2023-06-22T09:23:40;6.45;;;5.85;;
7989;SDS011;4040;42.848;23.034;2023-06-22T09:29:30;5.95;;;5.05;;
7989;SDS011;4040;42.848;23.034;2023-06-22T09:35:20;5.50;;;5.00;;
7989;SDS011;4040;42.848;23.034;2023-06-22T09:41:09;6.18;;;5.60;;
7989;SDS011;4040;42.848;23.034;2023-06-22T09:46:59;6.05;;;5.55;;
7989;SDS011;4040;42.848;23.034;2023-06-22T09:52:48;6.05;;;5.45;;
7989;SDS011;4040;42.848;23.034;2023-06-22T09:58:42;5.97;;;5.47;;
7989;SDS011;4040;42.848;23.034;2023-06-22T10:04:32;5.97;;;5.43;;
7989;SDS011;4040;42.848;23.034;2023-06-22T10:10:21;5.85;;;5.38;;
7989;SDS011;4040;42.848;23.034;2023-06-22T10:16:09;6.65;;;5.25;;
7989;SDS011;4040;42.848;23.034;2023-06-22T10:22:30;6.15;;;5.15;;
7989;SDS011;4040;42.848;23.034;2023-06-22T10:28:19;6.38;;;5.35;;
7989;SDS011;4040;42.848;23.034;2023-06-22T10:34:07;5.57;;;5.07;;
7989;SDS011;4040;42.848;23.034;2023-06-22T10:39:57;6.07;;;5.57;;
7989;SDS011;4040;42.848;23.034;2023-06-22T10:45:46;6.20;;;5.57;;
7989;SDS011;4040;42.848;23.034;2023-06-22T10:51:35;5.85;;;5.35;;
7989;SDS011;4040;42.848;23.034;2023-06-22T10:57:25;6.22;;;5.63;;
7989;SDS011;4040;42.848;23.034;2023-06-22T11:03:14;7.95;;;5.68;;
7989;SDS011;4040;42.848;23.034;2023-06-22T11:09:02;7.78;;;5.63;;
7989;SDS011;4040;42.848;23.034;2023-06-22T11:14:53;6.03;;;5.35;;
7989;SDS011;4040;42.848;23.034;2023-06-22T11:20:44;6.53;;;5.90;;
7989;SDS011;4040;42.848;23.034;2023-06-22T11:26:34;6.75;;;5.75;;
7989;SDS011;4040;42.848;23.034;2023-06-22T11:32:25;7.65;;;5.47;;
7989;SDS011;4040;42.848;23.034;2023-06-22T11:38:14;5.85;;;5.10;;
7989;SDS011;4040;42.848;23.034;2023-06-22T11:44:03;6.65;;;5.93;;
7989;SDS011;4040;42.848;23.034;2023-06-22T11:49:54;7.65;;;5.70;;
7989;SDS011;4040;42.848;23.034;2023-06-22T11:55:42;6.00;;;5.32;;
7989;SDS011;4040;42.848;23.034;2023-06-22T12:01:31;5.90;;;5.30;;
7989;SDS011;4040;42.848;23.034;2023-06-22T12:07:21;6.20;;;5.60;;
7989;SDS011;4040;42.848;23.034;2023-06-22T12:13:10;8.57;;;5.82;;
7989;SDS011;4040;42.848;23.034;2023-06-22T12:15:37;6.65;;;5.43;;
7989;SDS011;4040;42.848;23.034;2023-06-22T12:21:26;5.57;;;4.18;;
7989;SDS011;4040;42.848;23.034;2023-06-22T12:27:26;7.40;;;5.53;;
7989;SDS011;4040;42.848;23.034;2023-06-22T12:33:17;6.13;;;5.28;;
7989;SDS011;4040;42.848;23.034;2023-06-22T12:39:06;5.63;;;4.63;;
7989;SDS011;4040;42.848;23.034;2023-06-22T12:44:56;7.25;;;5.05;;
7989;SDS011;4040;42.848;23.034;2023-06-22T12:50:45;6.93;;;5.72;;
7989;SDS011;4040;42.848;23.034;2023-06-22T12:56:34;6.57;;;5.25;;
7989;SDS011;4040;42.848;23.034;2023-06-22T13:02:25;8.95;;;5.85;;
7989;SDS011;4040;42.848;23.034;2023-06-22T13:08:14;7.30;;;6.00;;
7989;SDS011;4040;42.848;23.034;2023-06-22T13:14:02;9.05;;;7.20;;
7989;SDS011;4040;42.848;23.034;2023-06-22T13:19:52;8.15;;;5.50;;
7989;SDS011;4040;42.848;23.034;2023-06-22T13:25:41;12.57;;;6.78;;
7989;SDS011;4040;42.848;23.034;2023-06-22T13:31:29;7.57;;;5.80;;
7989;SDS011;4040;42.848;23.034;2023-06-22T13:37:19;10.90;;;7.10;;
7989;SDS011;4040;42.848;23.034;2023-06-22T13:43:08;9.88;;;7.78;;
7989;SDS011;4040;42.848;23.034;2023-06-22T13:48:57;10.63;;;6.85;;
7989;SDS011;4040;42.848;23.034;2023-06-22T13:54:47;9.73;;;7.55;;
7989;SDS011;4040;42.848;23.034;2023-06-22T14:00:36;10.95;;;8.10;;
7989;SDS011;4040;42.848;23.034;2023-06-22T14:06:24;11.32;;;7.95;;
7989;SDS011;4040;42.848;23.034;2023-06-22T14:12:14;12.88;;;7.57;;
7989;SDS011;4040;42.848;23.034;2023-06-22T14:18:04;12.50;;;7.22;;
7989;SDS011;4040;42.848;23.034;2023-06-22T14:23:54;12.18;;;7.68;;
7989;SDS011;4040;42.848;23.034;2023-06-22T14:29:44;9.95;;;7.82;;
7989;SDS011;4040;42.848;23.034;2023-06-22T14:35:32;8.68;;;6.00;;
7989;SDS011;4040;42.848;23.034;2023-06-22T14:41:21;7.05;;;4.63;;
7989;SDS011;4040;42.848;23.034;2023-06-22T14:47:11;5.93;;;4.03;;
7989;SDS011;4040;42.848;23.034;2023-06-22T14:53:00;7.03;;;4.38;;
7989;SDS011;4040;42.848;23.034;2023-06-22T14:58:49;7.47;;;4.05;;
7989;SDS011;4040;42.848;23.034;2023-06-22T15:04:39;6.35;;;4.03;;
7989;SDS011;4040;42.848;23.034;2023-06-22T15:10:28;6.38;;;4.10;;
7989;SDS011;4040;42.848;23.034;2023-06-22T15:16:16;7.20;;;3.83;;
7989;SDS011;4040;42.848;23.034;2023-06-22T15:22:07;5.75;;;3.92;;
7989;SDS011;4040;42.848;23.034;2023-06-22T15:27:56;6.35;;;4.20;;
7989;SDS011;4040;42.848;23.034;2023-06-22T15:33:44;5.75;;;3.92;;
7989;SDS011;4040;42.848;23.034;2023-06-22T15:39:34;6.70;;;4.18;;
7989;SDS011;4040;42.848;23.034;2023-06-22T15:45:23;8.98;;;3.83;;
7989;SDS011;4040;42.848;23.034;2023-06-22T15:51:12;5.72;;;3.78;;
7989;SDS011;4040;42.848;23.034;2023-06-22T15:57:03;7.10;;;4.70;;
7989;SDS011;4040;42.848;23.034;2023-06-22T16:02:52;4.90;;;3.80;;
7989;SDS011;4040;42.848;23.034;2023-06-22T16:08:41;5.32;;;4.25;;
7989;SDS011;4040;42.848;23.034;2023-06-22T16:14:31;6.88;;;4.35;;
7989;SDS011;4040;42.848;23.034;2023-06-22T16:20:20;6.22;;;4.63;;
7989;SDS011;4040;42.848;23.034;2023-06-22T16:26:20;5.80;;;4.55;;
7989;SDS011;4040;42.848;23.034;2023-06-22T16:32:10;7.93;;;5.90;;
7989;SDS011;4040;42.848;23.034;2023-06-22T16:37:58;5.82;;;4.40;;
7989;SDS011;4040;42.848;23.034;2023-06-22T16:43:47;5.72;;;4.53;;
7989;SDS011;4040;42.848;23.034;2023-06-22T16:49:38;5.40;;;4.88;;
7989;SDS011;4040;42.848;23.034;2023-06-22T16:55:26;8.25;;;4.75;;
7989;SDS011;4040;42.848;23.034;2023-06-22T17:01:17;11.48;;;6.70;;
7989;SDS011;4040;42.848;23.034;2023-06-22T17:07:08;7.68;;;5.15;;
7989;SDS011;4040;42.848;23.034;2023-06-22T17:13:00;7.13;;;5.03;;
7989;SDS011;4040;42.848;23.034;2023-06-22T17:18:52;9.63;;;6.00;;
7989;SDS011;4040;42.848;23.034;2023-06-22T17:24:43;8.20;;;5.88;;
7989;SDS011;4040;42.848;23.034;2023-06-22T17:30:32;9.13;;;6.18;;
7989;SDS011;4040;42.848;23.034;2023-06-22T17:36:21;9.07;;;5.55;;
7989;SDS011;4040;42.848;23.034;2023-06-22T17:42:11;8.15;;;6.05;;
7989;SDS011;4040;42.848;23.034;2023-06-22T17:47:59;12.85;;;10.35;;
7989;SDS011;4040;42.848;23.034;2023-06-22T17:54:05;8.50;;;6.57;;
7989;SDS011;4040;42.848;23.034;2023-06-22T17:59:56;11.93;;;8.00;;
7989;SDS011;4040;42.848;23.034;2023-06-22T18:05:45;10.02;;;6.10;;
7989;SDS011;4040;42.848;23.034;2023-06-22T18:11:35;7.68;;;5.85;;
7989;SDS011;4040;42.848;23.034;2023-06-22T18:17:29;11.70;;;7.15;;
7989;SDS011;4040;42.848;23.034;2023-06-22T18:23:18;10.32;;;7.13;;
7989;SDS011;4040;42.848;23.034;2023-06-22T18:33:30;11.82;;;6.72;;
7989;SDS011;4040;42.848;23.034;2023-06-22T18:39:20;10.40;;;6.25;;
7989;SDS011;4040;42.848;23.034;2023-06-22T18:45:21;10.45;;;6.82;;
7989;SDS011;4040;42.848;23.034;2023-06-22T18:51:13;12.73;;;6.32;;
7989;SDS011;4040;42.848;23.034;2023-06-22T18:57:11;10.80;;;6.68;;
7989;SDS011;4040;42.848;23.034;2023-06-22T19:03:01;7.97;;;6.57;;
7989;SDS011;4040;42.848;23.034;2023-06-22T19:15:02;10.05;;;7.22;;
7989;SDS011;4040;42.848;23.034;2023-06-22T19:20:58;10.45;;;7.15;;
7989;SDS011;4040;42.848;23.034;2023-06-22T19:26:51;10.98;;;7.03;;
7989;SDS011;4040;42.848;23.034;2023-06-22T19:32:40;8.85;;;6.78;;
7989;SDS011;4040;42.848;23.034;2023-06-22T19:38:29;10.48;;;7.15;;
7989;SDS011;4040;42.848;23.034;2023-06-22T19:44:22;10.52;;;7.28;;
7989;SDS011;4040;42.848;23.034;2023-06-22T19:50:17;10.25;;;7.88;;
7989;SDS011;4040;42.848;23.034;2023-06-22T19:56:06;9.45;;;7.40;;
7989;SDS011;4040;42.848;23.034;2023-06-22T20:01:56;11.23;;;8.63;;
7989;SDS011;4040;42.848;23.034;2023-06-22T20:07:45;10.32;;;7.47;;
7989;SDS011;4040;42.848;23.034;2023-06-22T20:13:34;10.57;;;7.38;;
7989;SDS011;4040;42.848;23.034;2023-06-22T20:19:35;10.40;;;7.35;;
7989;SDS011;4040;42.848;23.034;2023-06-22T20:25:28;10.07;;;7.97;;
7989;SDS011;4040;42.848;23.034;2023-06-22T20:35:32;10.15;;;7.50;;
7989;SDS011;4040;42.848;23.034;2023-06-22T20:41:23;9.57;;;7.75;;
7989;SDS011;4040;42.848;23.034;2023-06-22T20:47:16;9.32;;;7.70;;
7989;SDS011;4040;42.848;23.034;2023-06-22T20:53:07;9.55;;;8.07;;
7989;SDS011;4040;42.848;23.034;2023-06-22T20:58:56;11.30;;;8.02;;
7989;SDS011;4040;42.848;23.034;2023-06-22T21:04:45;10.70;;;7.68;;
7989;SDS011;4040;42.848;23.034;2023-06-22T21:10:37;9.75;;;7.88;;
7989;SDS011;4040;42.848;23.034;2023-06-22T21:16:26;9.80;;;7.65;;
7989;SDS011;4040;42.848;23.034;2023-06-22T21:22:14;11.52;;;7.68;;
7989;SDS011;4040;42.848;23.034;2023-06-22T21:28:05;10.30;;;7.63;;
7989;SDS011;4040;42.848;23.034;2023-06-22T21:38:15;10.75;;;7.40;;
7989;SDS011;4040;42.848;23.034;2023-06-22T21:44:06;9.90;;;7.60;;
7989;SDS011;4040;42.848;23.034;2023-06-22T21:49:54;12.60;;;7.95;;
7989;SDS011;4040;42.848;23.034;2023-06-22T21:55:44;10.57;;;7.82;;
7989;SDS011;4040;42.848;23.034;2023-06-22T22:08:28;11.35;;;8.55;;
7989;SDS011;4040;42.848;23.034;2023-06-22T22:14:18;9.90;;;7.45;;
7989;SDS011;4040;42.848;23.034;2023-06-22T22:20:07;11.38;;;8.38;;
7989;SDS011;4040;42.848;23.034;2023-06-22T22:25:58;9.52;;;7.75;;
7989;SDS011;4040;42.848;23.034;2023-06-22T22:31:46;9.00;;;7.57;;
7989;SDS011;4040;42.848;23.034;2023-06-22T22:37:35;9.10;;;8.05;;
7989;SDS011;4040;42.848;23.034;2023-06-22T22:43:25;8.60;;;7.43;;
7989;SDS011;4040;42.848;23.034;2023-06-22T22:49:14;12.85;;;8.35;;
7989;SDS011;4040;42.848;23.034;2023-06-22T22:55:03;10.50;;;7.55;;
7989;SDS011;4040;42.848;23.034;2023-06-22T23:00:55;9.82;;;7.70;;
7989;SDS011;4040;42.848;23.034;2023-06-22T23:03:22;11.90;;;8.40;;
7989;SDS011;4040;42.848;23.034;2023-06-22T23:09:21;8.30;;;6.75;;
7989;SDS011;4040;42.848;23.034;2023-06-22T23:15:10;11.50;;;8.25;;
7989;SDS011;4040;42.848;23.034;2023-06-22T23:21:01;10.20;;;8.45;;
7989;SDS011;4040;42.848;23.034;2023-06-22T23:26:51;9.85;;;7.90;;
7989;SDS011;4040;42.848;23.034;2023-06-22T23:32:43;11.32;;;8.00;;
7989;SDS011;4040;42.848;23.034;2023-06-22T23:38:33;11.32;;;7.65;;
7989;SDS011;4040;42.848;23.034;2023-06-22T23:44:21;8.50;;;7.45;;
7989;SDS011;4040;42.848;23.034;2023-06-22T23:50:11;9.85;;;7.40;;
7989;SDS011;4040;42.848;23.034;2023-06-22T23:56:02;10.98;;;7.47;;
